Saltillo, Texas
Current Conditions -  °F | °C
As of 5:55 AM on Friday 19 Dec 2014 (Local Time) from KSLR Reporting Station
Light Rain Light Rain  
Wind Chill:   Ceiling: 500
Heat Index:   Visibility: 3mi
Dew Point:   Wind: 5mph
Humidity: 98%   Direction: 360°N
Pressure: 30.21"   Gusts: NA
Location:  33.18°N, 95.33°W
Report Text: KSLR 191155Z AUTO 36004KT 3SM -RA OVC005 08/08 A3021 RMK AO2 LTG DSNT SW T00780075 10080 20077
Loading
Personal Weather Stations






























Interactive Weather Map New forecast layout! Learn more

10-Day Weather Forecast

Advertisements
Track Severe Weather on mobile